sensor_id;sensor_type;location;lat;lon;timestamp;P1;durP1;ratioP1;P2;durP2;ratioP2
7173;SDS011;3628;48.654;8.932;2023-05-13T00:01:03;2.00;;;1.67;;
7173;SDS011;3628;48.654;8.932;2023-05-13T00:03:28;2.10;;;1.90;;
7173;SDS011;3628;48.654;8.932;2023-05-13T00:05:54;1.90;;;1.80;;
7173;SDS011;3628;48.654;8.932;2023-05-13T00:08:20;2.00;;;1.90;;
7173;SDS011;3628;48.654;8.932;2023-05-13T00:10:46;1.87;;;1.77;;
7173;SDS011;3628;48.654;8.932;2023-05-13T00:13:11;1.83;;;1.73;;
7173;SDS011;3628;48.654;8.932;2023-05-13T00:15:37;2.40;;;2.20;;
7173;SDS011;3628;48.654;8.932;2023-05-13T00:18:02;2.03;;;1.90;;
7173;SDS011;3628;48.654;8.932;2023-05-13T00:20:28;1.83;;;1.73;;
7173;SDS011;3628;48.654;8.932;2023-05-13T00:22:54;1.97;;;1.83;;
7173;SDS011;3628;48.654;8.932;2023-05-13T00:25:19;2.30;;;2.10;;
7173;SDS011;3628;48.654;8.932;2023-05-13T00:27:45;3.80;;;2.23;;
7173;SDS011;3628;48.654;8.932;2023-05-13T00:30:10;3.87;;;1.77;;
7173;SDS011;3628;48.654;8.932;2023-05-13T00:32:36;3.40;;;1.73;;
7173;SDS011;3628;48.654;8.932;2023-05-13T00:35:01;2.13;;;1.93;;
7173;SDS011;3628;48.654;8.932;2023-05-13T00:37:28;3.53;;;1.80;;
7173;SDS011;3628;48.654;8.932;2023-05-13T00:39:53;2.00;;;1.90;;
7173;SDS011;3628;48.654;8.932;2023-05-13T00:42:19;2.07;;;1.80;;
7173;SDS011;3628;48.654;8.932;2023-05-13T00:44:44;2.77;;;1.70;;
7173;SDS011;3628;48.654;8.932;2023-05-13T00:47:10;2.00;;;1.80;;
7173;SDS011;3628;48.654;8.932;2023-05-13T00:49:36;2.13;;;1.93;;
7173;SDS011;3628;48.654;8.932;2023-05-13T00:52:02;2.47;;;1.70;;
7173;SDS011;3628;48.654;8.932;2023-05-13T00:54:28;1.70;;;1.60;;
7173;SDS011;3628;48.654;8.932;2023-05-13T00:56:54;1.97;;;1.87;;
7173;SDS011;3628;48.654;8.932;2023-05-13T00:59:23;2.13;;;2.00;;
7173;SDS011;3628;48.654;8.932;2023-05-13T01:01:53;2.20;;;2.00;;
7173;SDS011;3628;48.654;8.932;2023-05-13T01:04:45;2.30;;;1.80;;
7173;SDS011;3628;48.654;8.932;2023-05-13T01:10:29;4.47;;;1.70;;
7173;SDS011;3628;48.654;8.932;2023-05-13T01:12:57;1.67;;;1.57;;
7173;SDS011;3628;48.654;8.932;2023-05-13T01:15:27;1.83;;;1.73;;
7173;SDS011;3628;48.654;8.932;2023-05-13T01:17:58;3.37;;;1.97;;
7173;SDS011;3628;48.654;8.932;2023-05-13T01:20:29;1.70;;;1.60;;
7173;SDS011;3628;48.654;8.932;2023-05-13T01:22:55;1.90;;;1.70;;
7173;SDS011;3628;48.654;8.932;2023-05-13T01:25:21;1.50;;;1.40;;
7173;SDS011;3628;48.654;8.932;2023-05-13T01:27:48;1.60;;;1.47;;
7173;SDS011;3628;48.654;8.932;2023-05-13T01:30:14;1.70;;;1.60;;
7173;SDS011;3628;48.654;8.932;2023-05-13T01:32:40;1.60;;;1.50;;
7173;SDS011;3628;48.654;8.932;2023-05-13T01:35:06;5.57;;;1.57;;
7173;SDS011;3628;48.654;8.932;2023-05-13T01:37:34;1.50;;;1.40;;
7173;SDS011;3628;48.654;8.932;2023-05-13T01:40:01;1.73;;;1.60;;
7173;SDS011;3628;48.654;8.932;2023-05-13T01:42:28;1.60;;;1.50;;
7173;SDS011;3628;48.654;8.932;2023-05-13T01:44:53;1.50;;;1.40;;
7173;SDS011;3628;48.654;8.932;2023-05-13T01:47:19;1.67;;;1.57;;
7173;SDS011;3628;48.654;8.932;2023-05-13T01:49:44;2.67;;;1.90;;
7173;SDS011;3628;48.654;8.932;2023-05-13T01:52:10;2.83;;;2.00;;
7173;SDS011;3628;48.654;8.932;2023-05-13T01:54:36;2.23;;;1.97;;
7173;SDS011;3628;48.654;8.932;2023-05-13T01:57:01;2.70;;;2.50;;
7173;SDS011;3628;48.654;8.932;2023-05-13T01:59:27;4.27;;;1.87;;
7173;SDS011;3628;48.654;8.932;2023-05-13T02:01:53;3.57;;;2.27;;
7173;SDS011;3628;48.654;8.932;2023-05-13T02:04:18;2.40;;;2.20;;
7173;SDS011;3628;48.654;8.932;2023-05-13T02:06:44;3.50;;;2.30;;
7173;SDS011;3628;48.654;8.932;2023-05-13T02:09:09;2.30;;;2.10;;
7173;SDS011;3628;48.654;8.932;2023-05-13T02:11:35;3.67;;;2.00;;
7173;SDS011;3628;48.654;8.932;2023-05-13T02:14:00;2.50;;;2.30;;
7173;SDS011;3628;48.654;8.932;2023-05-13T02:16:26;2.50;;;2.23;;
7173;SDS011;3628;48.654;8.932;2023-05-13T02:18:52;2.63;;;2.20;;
7173;SDS011;3628;48.654;8.932;2023-05-13T02:21:17;3.70;;;2.33;;
7173;SDS011;3628;48.654;8.932;2023-05-13T02:23:43;2.63;;;2.43;;
7173;SDS011;3628;48.654;8.932;2023-05-13T02:26:08;2.50;;;2.30;;
7173;SDS011;3628;48.654;8.932;2023-05-13T02:28:34;2.60;;;2.40;;
7173;SDS011;3628;48.654;8.932;2023-05-13T02:31:00;3.27;;;2.40;;
7173;SDS011;3628;48.654;8.932;2023-05-13T02:33:26;2.27;;;2.07;;
7173;SDS011;3628;48.654;8.932;2023-05-13T02:35:51;2.63;;;2.37;;
7173;SDS011;3628;48.654;8.932;2023-05-13T02:38:17;4.80;;;2.20;;
7173;SDS011;3628;48.654;8.932;2023-05-13T02:40:42;3.23;;;2.60;;
7173;SDS011;3628;48.654;8.932;2023-05-13T02:43:08;4.43;;;2.20;;
7173;SDS011;3628;48.654;8.932;2023-05-13T02:45:33;5.93;;;2.50;;
7173;SDS011;3628;48.654;8.932;2023-05-13T02:47:59;2.57;;;2.37;;
7173;SDS011;3628;48.654;8.932;2023-05-13T02:50:25;3.53;;;2.40;;
7173;SDS011;3628;48.654;8.932;2023-05-13T02:52:50;2.97;;;2.67;;
7173;SDS011;3628;48.654;8.932;2023-05-13T02:55:16;4.27;;;2.30;;
7173;SDS011;3628;48.654;8.932;2023-05-13T02:57:42;2.47;;;2.27;;
7173;SDS011;3628;48.654;8.932;2023-05-13T03:00:08;2.37;;;2.17;;
7173;SDS011;3628;48.654;8.932;2023-05-13T03:02:35;2.83;;;2.53;;
7173;SDS011;3628;48.654;8.932;2023-05-13T03:05:01;2.70;;;2.40;;
7173;SDS011;3628;48.654;8.932;2023-05-13T03:07:27;3.20;;;2.90;;
7173;SDS011;3628;48.654;8.932;2023-05-13T03:09:53;2.87;;;2.47;;
7173;SDS011;3628;48.654;8.932;2023-05-13T03:12:19;2.53;;;2.33;;
7173;SDS011;3628;48.654;8.932;2023-05-13T03:14:44;3.40;;;2.47;;
7173;SDS011;3628;48.654;8.932;2023-05-13T03:17:10;4.37;;;2.60;;
7173;SDS011;3628;48.654;8.932;2023-05-13T03:19:36;2.40;;;2.20;;
7173;SDS011;3628;48.654;8.932;2023-05-13T03:22:03;4.53;;;2.13;;
7173;SDS011;3628;48.654;8.932;2023-05-13T03:24:29;3.30;;;2.63;;
7173;SDS011;3628;48.654;8.932;2023-05-13T03:26:55;2.40;;;2.20;;
7173;SDS011;3628;48.654;8.932;2023-05-13T03:29:21;2.80;;;2.60;;
7173;SDS011;3628;48.654;8.932;2023-05-13T03:31:47;3.10;;;2.43;;
7173;SDS011;3628;48.654;8.932;2023-05-13T03:34:13;2.70;;;2.50;;
7173;SDS011;3628;48.654;8.932;2023-05-13T03:36:39;3.90;;;2.33;;
7173;SDS011;3628;48.654;8.932;2023-05-13T03:39:04;3.07;;;2.20;;
7173;SDS011;3628;48.654;8.932;2023-05-13T03:41:30;3.17;;;2.17;;
7173;SDS011;3628;48.654;8.932;2023-05-13T03:43:56;4.40;;;2.27;;
7173;SDS011;3628;48.654;8.932;2023-05-13T03:46:21;2.37;;;2.07;;
7173;SDS011;3628;48.654;8.932;2023-05-13T03:48:47;2.67;;;2.23;;
7173;SDS011;3628;48.654;8.932;2023-05-13T03:51:13;2.43;;;2.23;;
7173;SDS011;3628;48.654;8.932;2023-05-13T03:53:39;2.33;;;2.13;;
7173;SDS011;3628;48.654;8.932;2023-05-13T03:56:05;2.87;;;2.20;;
7173;SDS011;3628;48.654;8.932;2023-05-13T03:58:30;2.40;;;2.20;;
7173;SDS011;3628;48.654;8.932;2023-05-13T04:00:56;2.87;;;2.57;;
7173;SDS011;3628;48.654;8.932;2023-05-13T04:03:21;2.10;;;2.00;;
7173;SDS011;3628;48.654;8.932;2023-05-13T04:05:47;2.30;;;2.10;;
7173;SDS011;3628;48.654;8.932;2023-05-13T04:08:13;2.30;;;2.10;;
7173;SDS011;3628;48.654;8.932;2023-05-13T04:10:39;2.00;;;1.90;;
7173;SDS011;3628;48.654;8.932;2023-05-13T04:13:05;2.47;;;2.00;;
7173;SDS011;3628;48.654;8.932;2023-05-13T04:15:31;2.33;;;2.13;;
7173;SDS011;3628;48.654;8.932;2023-05-13T04:17:57;2.80;;;2.20;;
7173;SDS011;3628;48.654;8.932;2023-05-13T04:20:23;1.93;;;1.73;;
7173;SDS011;3628;48.654;8.932;2023-05-13T04:22:49;4.23;;;2.20;;
7173;SDS011;3628;48.654;8.932;2023-05-13T04:25:15;2.33;;;2.13;;
7173;SDS011;3628;48.654;8.932;2023-05-13T04:27:41;3.33;;;2.20;;
7173;SDS011;3628;48.654;8.932;2023-05-13T04:30:07;2.03;;;1.87;;
7173;SDS011;3628;48.654;8.932;2023-05-13T04:32:33;2.30;;;2.10;;
7173;SDS011;3628;48.654;8.932;2023-05-13T04:34:59;4.77;;;2.47;;
7173;SDS011;3628;48.654;8.932;2023-05-13T04:37:25;2.90;;;2.23;;
7173;SDS011;3628;48.654;8.932;2023-05-13T04:39:51;2.40;;;2.20;;
7173;SDS011;3628;48.654;8.932;2023-05-13T04:42:16;2.20;;;2.00;;
7173;SDS011;3628;48.654;8.932;2023-05-13T04:44:42;2.90;;;2.50;;
7173;SDS011;3628;48.654;8.932;2023-05-13T04:47:08;2.67;;;2.13;;
7173;SDS011;3628;48.654;8.932;2023-05-13T04:49:33;2.17;;;1.97;;
7173;SDS011;3628;48.654;8.932;2023-05-13T04:52:00;4.67;;;2.20;;
7173;SDS011;3628;48.654;8.932;2023-05-13T04:54:26;2.00;;;1.90;;
7173;SDS011;3628;48.654;8.932;2023-05-13T04:56:52;2.20;;;2.00;;
7173;SDS011;3628;48.654;8.932;2023-05-13T04:59:17;2.80;;;2.23;;
7173;SDS011;3628;48.654;8.932;2023-05-13T05:01:43;2.33;;;2.13;;
7173;SDS011;3628;48.654;8.932;2023-05-13T05:04:08;2.63;;;2.10;;
7173;SDS011;3628;48.654;8.932;2023-05-13T05:06:35;5.00;;;2.30;;
7173;SDS011;3628;48.654;8.932;2023-05-13T05:09:00;2.30;;;2.03;;
7173;SDS011;3628;48.654;8.932;2023-05-13T05:11:26;4.00;;;2.43;;
7173;SDS011;3628;48.654;8.932;2023-05-13T05:13:51;2.60;;;2.00;;
7173;SDS011;3628;48.654;8.932;2023-05-13T05:16:17;2.93;;;2.37;;
7173;SDS011;3628;48.654;8.932;2023-05-13T05:18:42;2.60;;;2.30;;
7173;SDS011;3628;48.654;8.932;2023-05-13T05:21:08;4.17;;;2.53;;
7173;SDS011;3628;48.654;8.932;2023-05-13T05:23:34;3.77;;;1.93;;
7173;SDS011;3628;48.654;8.932;2023-05-13T05:26:00;2.07;;;1.87;;
7173;SDS011;3628;48.654;8.932;2023-05-13T05:28:25;2.33;;;2.10;;
7173;SDS011;3628;48.654;8.932;2023-05-13T05:30:51;1.93;;;1.83;;
7173;SDS011;3628;48.654;8.932;2023-05-13T05:33:17;2.20;;;2.00;;
7173;SDS011;3628;48.654;8.932;2023-05-13T05:35:43;2.13;;;1.93;;
7173;SDS011;3628;48.654;8.932;2023-05-13T05:38:09;2.27;;;2.07;;
7173;SDS011;3628;48.654;8.932;2023-05-13T05:40:39;3.73;;;2.37;;
7173;SDS011;3628;48.654;8.932;2023-05-13T05:43:07;6.73;;;2.00;;
7173;SDS011;3628;48.654;8.932;2023-05-13T05:45:35;1.73;;;1.63;;
7173;SDS011;3628;48.654;8.932;2023-05-13T05:48:01;2.50;;;1.90;;
7173;SDS011;3628;48.654;8.932;2023-05-13T05:50:27;2.10;;;1.90;;
7173;SDS011;3628;48.654;8.932;2023-05-13T05:52:53;1.77;;;1.67;;
7173;SDS011;3628;48.654;8.932;2023-05-13T05:55:19;3.43;;;2.20;;
7173;SDS011;3628;48.654;8.932;2023-05-13T05:57:45;1.90;;;1.80;;
7173;SDS011;3628;48.654;8.932;2023-05-13T06:00:11;4.30;;;1.73;;
7173;SDS011;3628;48.654;8.932;2023-05-13T06:02:37;2.00;;;1.63;;
7173;SDS011;3628;48.654;8.932;2023-05-13T06:05:02;1.50;;;1.40;;
7173;SDS011;3628;48.654;8.932;2023-05-13T06:07:28;1.90;;;1.80;;
7173;SDS011;3628;48.654;8.932;2023-05-13T06:09:54;1.63;;;1.53;;
7173;SDS011;3628;48.654;8.932;2023-05-13T06:12:19;2.77;;;1.80;;
7173;SDS011;3628;48.654;8.932;2023-05-13T06:14:46;2.70;;;1.60;;
7173;SDS011;3628;48.654;8.932;2023-05-13T06:17:12;2.23;;;1.53;;
7173;SDS011;3628;48.654;8.932;2023-05-13T06:19:39;2.10;;;1.50;;
7173;SDS011;3628;48.654;8.932;2023-05-13T06:22:08;3.00;;;1.60;;
7173;SDS011;3628;48.654;8.932;2023-05-13T06:24:34;1.53;;;1.43;;
7173;SDS011;3628;48.654;8.932;2023-05-13T06:26:59;4.50;;;1.67;;
7173;SDS011;3628;48.654;8.932;2023-05-13T06:29:26;2.83;;;1.83;;
7173;SDS011;3628;48.654;8.932;2023-05-13T06:31:51;1.67;;;1.50;;
7173;SDS011;3628;48.654;8.932;2023-05-13T06:34:17;2.00;;;1.80;;
7173;SDS011;3628;48.654;8.932;2023-05-13T06:36:42;2.73;;;2.10;;
7173;SDS011;3628;48.654;8.932;2023-05-13T06:39:08;1.77;;;1.67;;
7173;SDS011;3628;48.654;8.932;2023-05-13T06:41:35;2.90;;;1.70;;
7173;SDS011;3628;48.654;8.932;2023-05-13T06:44:01;1.80;;;1.60;;
7173;SDS011;3628;48.654;8.932;2023-05-13T06:46:27;1.50;;;1.40;;
7173;SDS011;3628;48.654;8.932;2023-05-13T06:48:52;1.70;;;1.50;;
7173;SDS011;3628;48.654;8.932;2023-05-13T06:51:20;1.63;;;1.53;;
7173;SDS011;3628;48.654;8.932;2023-05-13T06:53:46;2.40;;;1.83;;
7173;SDS011;3628;48.654;8.932;2023-05-13T06:56:11;1.70;;;1.60;;
7173;SDS011;3628;48.654;8.932;2023-05-13T06:58:37;2.10;;;1.67;;
7173;SDS011;3628;48.654;8.932;2023-05-13T07:01:03;1.60;;;1.50;;
7173;SDS011;3628;48.654;8.932;2023-05-13T07:03:28;2.00;;;1.80;;
7173;SDS011;3628;48.654;8.932;2023-05-13T07:05:54;1.60;;;1.50;;
7173;SDS011;3628;48.654;8.932;2023-05-13T07:08:19;2.20;;;1.67;;
7173;SDS011;3628;48.654;8.932;2023-05-13T07:10:45;3.33;;;1.80;;
7173;SDS011;3628;48.654;8.932;2023-05-13T07:13:11;2.17;;;1.97;;
7173;SDS011;3628;48.654;8.932;2023-05-13T07:15:36;3.47;;;1.67;;
7173;SDS011;3628;48.654;8.932;2023-05-13T07:18:02;3.10;;;1.87;;
7173;SDS011;3628;48.654;8.932;2023-05-13T07:20:28;2.93;;;1.80;;
7173;SDS011;3628;48.654;8.932;2023-05-13T07:22:54;3.77;;;1.67;;
7173;SDS011;3628;48.654;8.932;2023-05-13T07:25:19;1.97;;;1.70;;
7173;SDS011;3628;48.654;8.932;2023-05-13T07:27:45;1.63;;;1.53;;
7173;SDS011;3628;48.654;8.932;2023-05-13T07:30:11;1.87;;;1.73;;
7173;SDS011;3628;48.654;8.932;2023-05-13T07:32:37;2.47;;;1.73;;
7173;SDS011;3628;48.654;8.932;2023-05-13T07:35:03;2.20;;;1.60;;
7173;SDS011;3628;48.654;8.932;2023-05-13T07:37:30;2.27;;;1.80;;
7173;SDS011;3628;48.654;8.932;2023-05-13T07:39:56;3.20;;;1.93;;
7173;SDS011;3628;48.654;8.932;2023-05-13T07:42:21;2.43;;;1.90;;
7173;SDS011;3628;48.654;8.932;2023-05-13T07:44:47;1.90;;;1.80;;
7173;SDS011;3628;48.654;8.932;2023-05-13T07:47:12;2.73;;;2.30;;
7173;SDS011;3628;48.654;8.932;2023-05-13T07:49:38;2.53;;;1.90;;
7173;SDS011;3628;48.654;8.932;2023-05-13T07:52:03;2.63;;;2.10;;
7173;SDS011;3628;48.654;8.932;2023-05-13T07:54:30;3.40;;;2.10;;
7173;SDS011;3628;48.654;8.932;2023-05-13T07:56:55;3.40;;;1.97;;
7173;SDS011;3628;48.654;8.932;2023-05-13T07:59:21;2.47;;;2.23;;
7173;SDS011;3628;48.654;8.932;2023-05-13T08:01:46;2.60;;;2.03;;
7173;SDS011;3628;48.654;8.932;2023-05-13T08:04:12;2.83;;;2.13;;
7173;SDS011;3628;48.654;8.932;2023-05-13T08:06:37;2.70;;;2.03;;
7173;SDS011;3628;48.654;8.932;2023-05-13T08:09:03;2.27;;;2.07;;
7173;SDS011;3628;48.654;8.932;2023-05-13T08:11:29;4.03;;;2.20;;
7173;SDS011;3628;48.654;8.932;2023-05-13T08:13:55;2.33;;;2.00;;
7173;SDS011;3628;48.654;8.932;2023-05-13T08:16:21;2.20;;;2.00;;
7173;SDS011;3628;48.654;8.932;2023-05-13T08:18:47;5.80;;;2.20;;
7173;SDS011;3628;48.654;8.932;2023-05-13T08:21:12;3.23;;;2.00;;
7173;SDS011;3628;48.654;8.932;2023-05-13T08:23:38;2.33;;;2.00;;
7173;SDS011;3628;48.654;8.932;2023-05-13T08:26:03;2.10;;;1.80;;
7173;SDS011;3628;48.654;8.932;2023-05-13T08:28:29;8.47;;;2.07;;
7173;SDS011;3628;48.654;8.932;2023-05-13T08:30:54;4.13;;;2.40;;
7173;SDS011;3628;48.654;8.932;2023-05-13T08:33:26;2.70;;;2.07;;
7173;SDS011;3628;48.654;8.932;2023-05-13T08:35:53;3.23;;;2.07;;
7173;SDS011;3628;48.654;8.932;2023-05-13T08:38:18;2.63;;;2.07;;
7173;SDS011;3628;48.654;8.932;2023-05-13T08:40:44;3.67;;;2.60;;
7173;SDS011;3628;48.654;8.932;2023-05-13T08:43:10;2.30;;;2.10;;
7173;SDS011;3628;48.654;8.932;2023-05-13T08:45:38;3.50;;;2.27;;
7173;SDS011;3628;48.654;8.932;2023-05-13T08:48:05;2.93;;;2.60;;
7173;SDS011;3628;48.654;8.932;2023-05-13T08:50:33;6.73;;;2.20;;
7173;SDS011;3628;48.654;8.932;2023-05-13T08:52:59;2.70;;;2.30;;
7173;SDS011;3628;48.654;8.932;2023-05-13T08:55:25;3.33;;;2.70;;
7173;SDS011;3628;48.654;8.932;2023-05-13T08:57:51;2.93;;;2.20;;
7173;SDS011;3628;48.654;8.932;2023-05-13T09:00:17;2.23;;;2.00;;
7173;SDS011;3628;48.654;8.932;2023-05-13T09:02:43;3.97;;;2.07;;
7173;SDS011;3628;48.654;8.932;2023-05-13T09:05:09;4.10;;;1.97;;
7173;SDS011;3628;48.654;8.932;2023-05-13T09:07:35;2.60;;;2.10;;
7173;SDS011;3628;48.654;8.932;2023-05-13T09:10:02;1.80;;;1.70;;
7173;SDS011;3628;48.654;8.932;2023-05-13T09:15:10;2.67;;;1.87;;
7173;SDS011;3628;48.654;8.932;2023-05-13T09:17:40;1.80;;;1.70;;
7173;SDS011;3628;48.654;8.932;2023-05-13T09:20:08;3.57;;;2.10;;
7173;SDS011;3628;48.654;8.932;2023-05-13T09:22:35;2.27;;;2.00;;
7173;SDS011;3628;48.654;8.932;2023-05-13T09:25:03;2.97;;;1.53;;
7173;SDS011;3628;48.654;8.932;2023-05-13T09:27:36;1.57;;;1.47;;
7173;SDS011;3628;48.654;8.932;2023-05-13T09:30:03;2.87;;;1.57;;
7173;SDS011;3628;48.654;8.932;2023-05-13T09:32:29;2.23;;;1.80;;
7173;SDS011;3628;48.654;8.932;2023-05-13T09:34:55;2.50;;;1.73;;
7173;SDS011;3628;48.654;8.932;2023-05-13T09:37:22;4.40;;;1.77;;
7173;SDS011;3628;48.654;8.932;2023-05-13T09:39:49;3.00;;;1.80;;
7173;SDS011;3628;48.654;8.932;2023-05-13T09:42:16;2.00;;;1.90;;
7173;SDS011;3628;48.654;8.932;2023-05-13T09:44:44;2.17;;;1.83;;
7173;SDS011;3628;48.654;8.932;2023-05-13T09:47:11;1.60;;;1.50;;
7173;SDS011;3628;48.654;8.932;2023-05-13T09:49:39;1.73;;;1.63;;
7173;SDS011;3628;48.654;8.932;2023-05-13T09:52:06;1.57;;;1.47;;
7173;SDS011;3628;48.654;8.932;2023-05-13T09:54:35;2.23;;;1.70;;
7173;SDS011;3628;48.654;8.932;2023-05-13T09:57:02;2.07;;;1.70;;
7173;SDS011;3628;48.654;8.932;2023-05-13T09:59:34;1.77;;;1.57;;
7173;SDS011;3628;48.654;8.932;2023-05-13T10:02:00;2.10;;;1.67;;
7173;SDS011;3628;48.654;8.932;2023-05-13T10:04:29;2.00;;;1.90;;
7173;SDS011;3628;48.654;8.932;2023-05-13T10:06:56;1.80;;;1.70;;
7173;SDS011;3628;48.654;8.932;2023-05-13T10:09:23;2.40;;;1.70;;
7173;SDS011;3628;48.654;8.932;2023-05-13T10:11:51;2.20;;;2.00;;
7173;SDS011;3628;48.654;8.932;2023-05-13T10:14:17;2.27;;;1.53;;
7173;SDS011;3628;48.654;8.932;2023-05-13T10:16:43;2.93;;;1.50;;
7173;SDS011;3628;48.654;8.932;2023-05-13T10:19:11;1.90;;;1.60;;
7173;SDS011;3628;48.654;8.932;2023-05-13T10:21:37;2.87;;;1.77;;
7173;SDS011;3628;48.654;8.932;2023-05-13T10:24:04;1.60;;;1.30;;
7173;SDS011;3628;48.654;8.932;2023-05-13T10:26:31;1.40;;;1.30;;
7173;SDS011;3628;48.654;8.932;2023-05-13T10:28:57;1.40;;;1.30;;
7173;SDS011;3628;48.654;8.932;2023-05-13T10:31:23;1.73;;;1.30;;
7173;SDS011;3628;48.654;8.932;2023-05-13T10:33:50;1.90;;;1.30;;
7173;SDS011;3628;48.654;8.932;2023-05-13T10:39:21;4.37;;;1.30;;
7173;SDS011;3628;48.654;8.932;2023-05-13T10:45:03;1.60;;;1.50;;
7173;SDS011;3628;48.654;8.932;2023-05-13T10:47:32;1.70;;;1.60;;
7173;SDS011;3628;48.654;8.932;2023-05-13T10:49:57;1.87;;;1.50;;
7173;SDS011;3628;48.654;8.932;2023-05-13T10:52:47;2.53;;;1.43;;
7173;SDS011;3628;48.654;8.932;2023-05-13T10:55:16;2.20;;;1.50;;
7173;SDS011;3628;48.654;8.932;2023-05-13T10:58:16;2.13;;;1.23;;
7173;SDS011;3628;48.654;8.932;2023-05-13T11:00:37;2.33;;;2.07;;
7173;SDS011;3628;48.654;8.932;2023-05-13T11:03:08;1.50;;;1.23;;
7173;SDS011;3628;48.654;8.932;2023-05-13T11:05:39;1.80;;;1.00;;
7173;SDS011;3628;48.654;8.932;2023-05-13T11:08:05;1.17;;;1.17;;
7173;SDS011;3628;48.654;8.932;2023-05-13T11:10:31;1.73;;;1.00;;
7173;SDS011;3628;48.654;8.932;2023-05-13T11:15:44;2.30;;;1.40;;
7173;SDS011;3628;48.654;8.932;2023-05-13T11:18:13;1.50;;;1.40;;
7173;SDS011;3628;48.654;8.932;2023-05-13T11:20:39;1.40;;;1.30;;
7173;SDS011;3628;48.654;8.932;2023-05-13T11:23:08;2.00;;;1.13;;
7173;SDS011;3628;48.654;8.932;2023-05-13T11:25:41;1.47;;;1.37;;
7173;SDS011;3628;48.654;8.932;2023-05-13T11:28:08;1.27;;;1.17;;
7173;SDS011;3628;48.654;8.932;2023-05-13T11:30:33;1.53;;;1.30;;
7173;SDS011;3628;48.654;8.932;2023-05-13T11:32:59;1.27;;;1.10;;
7173;SDS011;3628;48.654;8.932;2023-05-13T11:35:30;2.17;;;1.20;;
7173;SDS011;3628;48.654;8.932;2023-05-13T11:38:00;1.30;;;1.20;;
7173;SDS011;3628;48.654;8.932;2023-05-13T11:40:27;5.63;;;1.27;;
7173;SDS011;3628;48.654;8.932;2023-05-13T11:42:57;1.43;;;1.20;;
7173;SDS011;3628;48.654;8.932;2023-05-13T11:45:23;0.90;;;0.90;;
7173;SDS011;3628;48.654;8.932;2023-05-13T11:47:51;1.00;;;1.00;;
7173;SDS011;3628;48.654;8.932;2023-05-13T11:52:59;1.50;;;1.33;;
7173;SDS011;3628;48.654;8.932;2023-05-13T11:57:56;2.57;;;1.33;;
7173;SDS011;3628;48.654;8.932;2023-05-13T12:00:26;1.37;;;1.27;;
7173;SDS011;3628;48.654;8.932;2023-05-13T12:02:53;2.07;;;1.87;;
7173;SDS011;3628;48.654;8.932;2023-05-13T12:05:19;2.03;;;1.80;;
7173;SDS011;3628;48.654;8.932;2023-05-13T12:07:45;1.50;;;1.40;;
7173;SDS011;3628;48.654;8.932;2023-05-13T12:10:11;2.90;;;1.50;;
7173;SDS011;3628;48.654;8.932;2023-05-13T12:12:37;2.20;;;1.90;;
7173;SDS011;3628;48.654;8.932;2023-05-13T12:15:07;1.80;;;1.70;;
7173;SDS011;3628;48.654;8.932;2023-05-13T12:17:37;1.70;;;1.47;;
7173;SDS011;3628;48.654;8.932;2023-05-13T12:22:28;1.70;;;1.60;;
7173;SDS011;3628;48.654;8.932;2023-05-13T12:24:54;2.73;;;2.00;;
7173;SDS011;3628;48.654;8.932;2023-05-13T12:27:19;1.87;;;1.77;;
7173;SDS011;3628;48.654;8.932;2023-05-13T12:29:46;2.50;;;1.47;;
7173;SDS011;3628;48.654;8.932;2023-05-13T12:32:13;1.93;;;1.50;;
7173;SDS011;3628;48.654;8.932;2023-05-13T12:34:40;1.73;;;1.43;;
7173;SDS011;3628;48.654;8.932;2023-05-13T12:37:13;4.00;;;1.60;;
7173;SDS011;3628;48.654;8.932;2023-05-13T12:39:39;2.03;;;1.73;;
7173;SDS011;3628;48.654;8.932;2023-05-13T12:42:12;2.87;;;1.70;;
7173;SDS011;3628;48.654;8.932;2023-05-13T12:44:44;3.50;;;1.60;;
7173;SDS011;3628;48.654;8.932;2023-05-13T12:47:10;1.63;;;1.53;;
7173;SDS011;3628;48.654;8.932;2023-05-13T12:52:39;2.40;;;1.73;;
7173;SDS011;3628;48.654;8.932;2023-05-13T12:55:05;1.77;;;1.67;;
7173;SDS011;3628;48.654;8.932;2023-05-13T12:57:31;1.57;;;1.47;;
7173;SDS011;3628;48.654;8.932;2023-05-13T12:59:56;2.03;;;1.93;;
7173;SDS011;3628;48.654;8.932;2023-05-13T13:02:22;1.53;;;1.43;;
7173;SDS011;3628;48.654;8.932;2023-05-13T13:04:47;1.83;;;1.47;;
7173;SDS011;3628;48.654;8.932;2023-05-13T13:07:13;2.03;;;1.80;;
7173;SDS011;3628;48.654;8.932;2023-05-13T13:09:38;1.67;;;1.57;;
7173;SDS011;3628;48.654;8.932;2023-05-13T13:12:04;1.63;;;1.53;;
7173;SDS011;3628;48.654;8.932;2023-05-13T13:14:30;2.07;;;1.30;;
7173;SDS011;3628;48.654;8.932;2023-05-13T13:16:55;1.77;;;1.60;;
7173;SDS011;3628;48.654;8.932;2023-05-13T13:19:21;1.97;;;1.63;;
7173;SDS011;3628;48.654;8.932;2023-05-13T13:21:46;1.57;;;1.40;;
7173;SDS011;3628;48.654;8.932;2023-05-13T13:24:12;2.33;;;1.70;;
7173;SDS011;3628;48.654;8.932;2023-05-13T13:26:37;2.47;;;1.67;;
7173;SDS011;3628;48.654;8.932;2023-05-13T13:29:03;2.40;;;1.90;;
7173;SDS011;3628;48.654;8.932;2023-05-13T13:31:29;1.80;;;1.70;;
7173;SDS011;3628;48.654;8.932;2023-05-13T13:33:54;2.87;;;1.80;;
7173;SDS011;3628;48.654;8.932;2023-05-13T13:36:22;1.73;;;1.63;;
7173;SDS011;3628;48.654;8.932;2023-05-13T13:38:48;1.70;;;1.47;;
7173;SDS011;3628;48.654;8.932;2023-05-13T13:41:13;2.63;;;1.60;;
7173;SDS011;3628;48.654;8.932;2023-05-13T13:43:39;1.70;;;1.60;;
7173;SDS011;3628;48.654;8.932;2023-05-13T13:46:04;1.63;;;1.53;;
7173;SDS011;3628;48.654;8.932;2023-05-13T13:48:30;1.93;;;1.77;;
7173;SDS011;3628;48.654;8.932;2023-05-13T13:50:55;1.50;;;1.30;;
7173;SDS011;3628;48.654;8.932;2023-05-13T13:53:23;1.50;;;1.40;;
7173;SDS011;3628;48.654;8.932;2023-05-13T13:55:48;1.67;;;1.57;;
7173;SDS011;3628;48.654;8.932;2023-05-13T13:58:14;2.80;;;1.50;;
7173;SDS011;3628;48.654;8.932;2023-05-13T14:00:40;4.03;;;1.63;;
7173;SDS011;3628;48.654;8.932;2023-05-13T14:03:05;2.13;;;1.80;;
7173;SDS011;3628;48.654;8.932;2023-05-13T14:05:31;3.13;;;1.57;;
7173;SDS011;3628;48.654;8.932;2023-05-13T14:07:56;1.77;;;1.60;;
7173;SDS011;3628;48.654;8.932;2023-05-13T14:10:22;1.50;;;1.40;;
7173;SDS011;3628;48.654;8.932;2023-05-13T14:12:48;2.10;;;1.40;;
7173;SDS011;3628;48.654;8.932;2023-05-13T14:15:13;1.50;;;1.40;;
7173;SDS011;3628;48.654;8.932;2023-05-13T14:17:39;2.33;;;1.40;;
7173;SDS011;3628;48.654;8.932;2023-05-13T14:20:05;1.43;;;1.33;;
7173;SDS011;3628;48.654;8.932;2023-05-13T14:22:34;1.30;;;1.20;;
7173;SDS011;3628;48.654;8.932;2023-05-13T14:25:00;2.20;;;1.53;;
7173;SDS011;3628;48.654;8.932;2023-05-13T14:27:25;1.50;;;1.40;;
7173;SDS011;3628;48.654;8.932;2023-05-13T14:29:51;1.60;;;1.50;;
7173;SDS011;3628;48.654;8.932;2023-05-13T14:32:16;2.40;;;1.43;;
7173;SDS011;3628;48.654;8.932;2023-05-13T14:34:42;1.47;;;1.37;;
7173;SDS011;3628;48.654;8.932;2023-05-13T14:37:07;1.70;;;1.60;;
7173;SDS011;3628;48.654;8.932;2023-05-13T14:39:33;2.00;;;1.73;;
7173;SDS011;3628;48.654;8.932;2023-05-13T14:41:59;1.50;;;1.40;;
7173;SDS011;3628;48.654;8.932;2023-05-13T14:44:25;1.40;;;1.30;;
7173;SDS011;3628;48.654;8.932;2023-05-13T14:46:50;1.63;;;1.53;;
7173;SDS011;3628;48.654;8.932;2023-05-13T14:49:16;1.73;;;1.63;;
7173;SDS011;3628;48.654;8.932;2023-05-13T14:51:41;3.40;;;1.80;;
7173;SDS011;3628;48.654;8.932;2023-05-13T14:54:07;1.77;;;1.67;;
7173;SDS011;3628;48.654;8.932;2023-05-13T14:56:33;1.80;;;1.70;;
7173;SDS011;3628;48.654;8.932;2023-05-13T14:58:59;2.23;;;1.60;;
7173;SDS011;3628;48.654;8.932;2023-05-13T15:01:26;2.03;;;1.83;;
7173;SDS011;3628;48.654;8.932;2023-05-13T15:03:52;1.97;;;1.77;;
7173;SDS011;3628;48.654;8.932;2023-05-13T15:06:17;1.90;;;1.80;;
7173;SDS011;3628;48.654;8.932;2023-05-13T15:08:43;2.43;;;1.77;;
7173;SDS011;3628;48.654;8.932;2023-05-13T15:11:08;1.73;;;1.60;;
7173;SDS011;3628;48.654;8.932;2023-05-13T15:13:34;2.00;;;1.60;;
7173;SDS011;3628;48.654;8.932;2023-05-13T15:16:03;1.63;;;1.53;;
7173;SDS011;3628;48.654;8.932;2023-05-13T15:18:30;1.30;;;1.20;;
7173;SDS011;3628;48.654;8.932;2023-05-13T15:20:56;2.43;;;1.73;;
7173;SDS011;3628;48.654;8.932;2023-05-13T15:23:22;1.87;;;1.73;;
7173;SDS011;3628;48.654;8.932;2023-05-13T15:25:47;3.33;;;1.70;;
7173;SDS011;3628;48.654;8.932;2023-05-13T15:28:13;1.87;;;1.50;;
7173;SDS011;3628;48.654;8.932;2023-05-13T15:30:39;2.00;;;1.80;;
7173;SDS011;3628;48.654;8.932;2023-05-13T15:33:06;1.73;;;1.63;;
7173;SDS011;3628;48.654;8.932;2023-05-13T15:35:32;1.93;;;1.80;;